Time;durP1;ratioP1;P1;durP2;ratioP2;P2;SDS_P1;SDS_P2;PMS_P1;PMS_P2;Temp;Humidity;BMP_temperature;BMP_pressure;BME280_temperature;BME280_humidity;BME280_pressure;Samples;Min_cycle;Max_cycle;Signal;HPM_P1;HPM_P2
2022/12/11 00:01:14;;;;;;;104.95;27.58;;;;;;;7.93;61.90;101244.25;5070442;28;20123;-73
2022/12/11 00:03:40;;;;;;;96.60;27.63;;;;;;;7.79;61.73;101237.16;5068487;28;20032;-72
2022/12/11 00:06:08;;;;;;;92.13;26.75;;;;;;;7.47;62.82;101236.97;5066453;28;20041;-70
2022/12/11 00:08:33;;;;;;;97.05;29.48;;;;;;;7.64;62.01;101232.97;5066982;28;20028;-71
2022/12/11 00:10:59;;;;;;;102.22;29.10;;;;;;;7.68;62.59;101231.53;5069836;28;20036;-73
2022/12/11 00:13:24;;;;;;;97.75;29.05;;;;;;;7.27;63.17;101236.81;5069423;28;20040;-72
2022/12/11 00:15:50;;;;;;;96.63;25.30;;;;;;;7.26;63.45;101237.00;5069906;28;20131;-72
2022/12/11 00:18:15;;;;;;;96.45;26.50;;;;;;;7.39;62.76;101229.91;5069475;28;20041;-70
2022/12/11 00:20:41;;;;;;;99.60;29.60;;;;;;;7.95;61.54;101231.50;5067311;28;20135;-71
2022/12/11 00:23:06;;;;;;;105.22;28.67;;;;;;;8.00;61.60;101223.69;5016941;28;1102282;-70
2022/12/11 00:25:32;;;;;;;97.93;27.38;;;;;;;8.31;60.06;101225.91;5050280;28;20044;-70
2022/12/11 00:27:57;;;;;;;93.63;30.63;;;;;;;7.90;61.60;101233.13;5050964;28;20060;-71
2022/12/11 00:30:22;;;;;;;94.20;28.50;;;;;;;7.61;62.67;101228.81;5049597;28;20485;-71
2022/12/11 00:32:50;;;;;;;106.78;30.33;;;;;;;7.95;61.24;101225.31;5050446;28;20049;-73
2022/12/11 00:35:16;;;;;;;85.65;28.20;;;;;;;8.22;60.96;101224.38;5049628;28;20041;-72
2022/12/11 00:37:41;;;;;;;93.10;30.55;;;;;;;7.84;62.25;101225.88;5050402;28;20544;-72
2022/12/11 00:40:07;;;;;;;79.57;25.70;;;;;;;7.94;62.04;101226.31;5065274;28;20119;-71
2022/12/11 00:42:32;;;;;;;100.18;26.35;;;;;;;7.31;62.52;101229.25;5070326;28;20072;-72
2022/12/11 00:44:58;;;;;;;90.57;27.85;;;;;;;7.87;61.95;101222.78;5069168;28;20036;-71
2022/12/11 00:47:23;;;;;;;81.70;26.92;;;;;;;8.19;61.55;101226.66;5070497;28;20136;-72
2022/12/11 00:49:48;;;;;;;88.55;29.33;;;;;;;7.82;61.71;101227.94;5070545;28;20033;-71
2022/12/11 00:52:16;;;;;;;84.93;27.40;;;;;;;8.30;61.04;101213.53;5070369;28;20036;-73
2022/12/11 00:54:41;;;;;;;81.28;26.00;;;;;;;8.04;61.29;101221.44;5052352;28;20501;-70
2022/12/11 00:57:07;;;;;;;92.78;27.88;;;;;;;8.57;59.83;101214.44;5070374;28;20036;-71
2022/12/11 00:59:32;;;;;;;87.53;28.52;;;;;;;8.15;60.91;101220.88;5070422;28;20086;-71
2022/12/11 01:01:57;;;;;;;88.15;27.98;;;;;;;8.21;60.69;101213.88;5070189;28;20097;-73
2022/12/11 01:04:23;;;;;;;95.07;26.92;;;;;;;8.44;60.05;101222.44;5069957;28;20032;-71
2022/12/11 01:06:48;;;;;;;97.10;29.40;;;;;;;8.20;61.22;101217.56;5070290;28;20081;-72
2022/12/11 01:12:05;;;;;;;92.90;28.95;;;;;;;7.87;61.30;101225.47;5007724;28;20046;-71
2022/12/11 01:14:31;;;;;;;88.03;27.20;;;;;;;7.59;62.65;101230.03;5007831;28;20057;-71
2022/12/11 01:16:56;;;;;;;96.35;28.40;;;;;;;7.79;62.68;101231.81;5001590;28;20421;-72
2022/12/11 01:19:21;;;;;;;92.65;29.25;;;;;;;8.12;61.59;101226.59;4988531;28;20172;-75
2022/12/11 01:21:47;;;;;;;90.32;28.27;;;;;;;7.89;62.34;101226.09;4995676;28;20121;-76
2022/12/11 01:24:12;;;;;;;94.13;27.95;;;;;;;8.06;61.78;101221.25;5028471;28;20065;-77
2022/12/11 01:26:37;;;;;;;89.93;28.15;;;;;;;8.23;60.72;101227.91;5028581;28;20489;-74
2022/12/11 01:29:03;;;;;;;87.15;28.67;;;;;;;8.03;60.82;101222.47;5028822;28;20064;-75
2022/12/11 01:31:28;;;;;;;90.57;28.73;;;;;;;8.52;59.99;101222.25;5028410;28;20042;-75
2022/12/11 01:33:54;;;;;;;86.10;28.10;;;;;;;8.27;60.63;101227.34;5028662;28;20033;-75
2022/12/11 01:36:21;;;;;;;82.30;29.33;;;;;;;7.91;61.86;101224.88;5028082;28;20544;-76
2022/12/11 01:38:47;;;;;;;91.43;29.60;;;;;;;8.54;60.49;101217.53;5028454;28;20112;-76
2022/12/11 01:41:14;;;;;;;91.53;27.52;;;;;;;8.53;59.82;101210.53;5030556;28;20489;-76
2022/12/11 01:44:01;;;;;;;85.70;27.92;;;;;;;8.19;61.15;101218.63;5031564;28;20033;-75
2022/12/11 01:46:28;;;;;;;89.63;29.10;;;;;;;7.74;62.70;101223.53;5031551;28;20041;-75
2022/12/11 01:48:55;;;;;;;98.95;29.63;;;;;;;7.46;63.43;101222.78;5043733;28;20044;-74
2022/12/11 01:51:22;;;;;;;96.50;30.90;;;;;;;8.20;61.38;101221.09;5053414;28;20037;-76
2022/12/11 01:53:53;;;;;;;81.05;28.13;;;;;;;8.33;61.37;101210.47;5053723;28;20040;-76
2022/12/11 01:56:18;;;;;;;87.38;28.33;;;;;;;8.30;61.22;101208.19;5053667;28;20041;-75
2022/12/11 01:58:48;;;;;;;90.85;29.85;;;;;;;7.49;63.90;101224.22;5064721;28;20128;-75
2022/12/11 02:01:21;;;;;;;87.28;27.83;;;;;;;8.02;61.99;101208.25;5054684;28;20044;-76
2022/12/11 02:03:47;;;;;;;84.78;27.15;;;;;;;8.12;61.76;101210.56;5054241;28;20048;-75
2022/12/11 02:06:33;;;;;;;87.63;27.08;;;;;;;8.75;59.95;101204.78;5061523;28;20040;-76
2022/12/11 02:08:59;;;;;;;86.68;27.90;;;;;;;8.37;60.62;101205.53;5073729;28;20563;-76
2022/12/11 02:11:34;;;;;;;95.20;30.00;;;;;;;8.17;61.93;101216.16;5073856;28;20095;-76
2022/12/11 02:14:04;;;;;;;96.80;28.90;;;;;;;8.19;61.79;101214.09;5071904;28;20042;-75
2022/12/11 02:16:41;;;;;;;90.30;27.67;;;;;;;8.27;61.08;101208.59;5073657;28;20047;-76
2022/12/11 02:19:17;;;;;;;90.05;28.98;;;;;;;8.44;60.93;101207.19;5073826;28;20044;-76
2022/12/11 02:21:49;;;;;;;89.03;26.98;;;;;;;8.54;60.78;101206.81;5073506;28;20480;-76
2022/12/11 02:24:38;;;;;;;88.30;28.42;;;;;;;8.17;61.74;101202.75;5073721;28;20132;-74
2022/12/11 02:27:19;;;;;;;80.22;26.50;;;;;;;7.97;61.79;101196.50;5073420;28;20044;-77
2022/12/11 02:30:00;;;;;;;74.55;29.80;;;;;;;8.63;60.38;101198.38;5073035;28;20191;-75
2022/12/11 02:32:33;;;;;;;87.93;29.52;;;;;;;8.91;59.46;101192.00;5071729;28;20044;-75
2022/12/11 02:35:08;;;;;;;93.20;27.65;;;;;;;8.56;60.80;101197.53;5073018;28;20033;-76
2022/12/11 02:37:36;;;;;;;102.25;28.70;;;;;;;8.23;61.88;101193.09;5072890;28;20032;-74
2022/12/11 02:40:06;;;;;;;89.90;27.23;;;;;;;8.49;60.80;101195.88;5073286;28;20117;-75
2022/12/11 02:42:33;;;;;;;86.50;28.77;;;;;;;8.61;60.77;101197.75;5072554;28;20041;-74
2022/12/11 02:45:01;;;;;;;89.88;28.40;;;;;;;8.34;61.79;101206.75;5073028;28;20029;-75
2022/12/11 02:47:29;;;;;;;94.30;30.02;;;;;;;7.82;63.54;101210.00;5054053;28;20040;-75
2022/12/11 02:49:57;;;;;;;95.03;29.33;;;;;;;7.69;62.98;101209.94;5055052;28;20039;-76
2022/12/11 02:52:26;;;;;;;99.65;29.55;;;;;;;8.23;62.51;101199.28;5069997;28;20443;-73
2022/12/11 02:54:56;;;;;;;97.20;30.30;;;;;;;8.43;61.86;101202.84;5073381;28;20051;-75
2022/12/11 02:57:26;;;;;;;96.05;30.13;;;;;;;8.65;60.82;101200.84;5054736;28;20032;-76
2022/12/11 02:59:52;;;;;;;102.80;30.33;;;;;;;8.00;62.70;101196.91;5072534;28;20131;-75
2022/12/11 03:02:17;;;;;;;93.55;26.20;;;;;;;8.15;61.58;101193.28;5073133;28;20538;-75
2022/12/11 03:04:44;;;;;;;95.78;28.80;;;;;;;8.69;60.49;101186.84;5072526;28;20041;-76
2022/12/11 03:07:14;;;;;;;87.95;28.17;;;;;;;8.36;61.36;101185.97;5071261;28;20565;-76
2022/12/11 03:09:41;;;;;;;94.03;27.42;;;;;;;8.04;62.28;101183.16;5072829;28;20056;-76
2022/12/11 03:12:10;;;;;;;98.35;27.75;;;;;;;7.96;62.66;101184.97;5073143;28;20036;-76
2022/12/11 03:14:38;;;;;;;86.05;26.67;;;;;;;8.52;60.94;101180.22;5072892;28;20036;-76
2022/12/11 03:17:11;;;;;;;95.07;28.60;;;;;;;8.74;60.29;101178.19;5063351;28;20449;-76
2022/12/11 03:19:44;;;;;;;94.60;29.63;;;;;;;8.59;60.60;101181.06;5052096;28;20108;-76
2022/12/11 03:22:15;;;;;;;74.10;26.52;;;;;;;8.72;60.31;101174.91;5057295;28;20037;-76
2022/12/11 03:24:46;;;;;;;94.57;29.58;;;;;;;8.26;61.35;101176.66;5054512;28;20124;-76
2022/12/11 03:27:24;;;;;;;88.78;29.60;;;;;;;8.58;61.11;101171.38;5072514;28;20045;-74
2022/12/11 03:30:05;;;;;;;87.28;28.08;;;;;;;8.73;60.21;101169.31;5072925;28;20036;-76
2022/12/11 03:32:49;;;;;;;78.35;26.02;;;;;;;9.08;59.23;101161.91;5072428;28;20040;-76
2022/12/11 03:35:23;;;;;;;92.90;27.73;;;;;;;8.98;59.51;101156.16;5072463;28;20039;-76
2022/12/11 03:37:50;;;;;;;84.47;27.17;;;;;;;8.39;60.74;101166.78;5072146;28;20119;-75
2022/12/11 03:40:19;;;;;;;96.85;30.75;;;;;;;8.19;61.78;101163.25;5057712;28;20043;-76
2022/12/11 03:42:47;;;;;;;86.63;28.02;;;;;;;8.91;60.04;101166.03;5052137;28;20032;-74
2022/12/11 03:45:15;;;;;;;88.88;27.65;;;;;;;8.98;59.81;101158.00;5052092;28;20175;-75
2022/12/11 03:47:42;;;;;;;89.40;29.75;;;;;;;8.70;60.93;101166.25;5052508;28;20511;-77
2022/12/11 03:50:11;;;;;;;87.00;27.50;;;;;;;8.94;59.43;101171.00;5051545;28;20040;-77
2022/12/11 03:52:40;;;;;;;87.82;27.58;;;;;;;8.88;59.65;101168.31;5033766;28;20057;-77
2022/12/11 03:55:07;;;;;;;81.40;26.40;;;;;;;9.02;59.37;101165.41;5052494;28;20044;-77
2022/12/11 03:57:35;;;;;;;83.57;29.10;;;;;;;9.01;59.64;101170.97;5051516;28;20048;-77
2022/12/11 04:00:03;;;;;;;80.43;25.95;;;;;;;8.73;60.19;101163.13;5051845;28;20041;-76
2022/12/11 04:02:30;;;;;;;73.75;26.65;;;;;;;8.78;60.29;101166.88;5051803;28;20037;-76
2022/12/11 04:04:55;;;;;;;81.55;27.40;;;;;;;8.77;60.30;101175.94;5051613;28;20037;-77
2022/12/11 04:07:20;;;;;;;67.40;25.98;;;;;;;8.91;59.69;101168.72;5033524;28;20535;-77
2022/12/11 04:09:46;;;;;;;79.40;26.30;;;;;;;8.54;61.00;101172.00;5051972;28;20120;-76
2022/12/11 04:12:11;;;;;;;74.95;27.40;;;;;;;8.51;61.25;101178.56;5051720;28;20064;-76
2022/12/11 04:25:33;;;;;;;92.53;27.83;;;;;;;8.68;60.82;101173.66;5031900;28;20091;-76
2022/12/11 04:27:58;;;;;;;76.55;25.83;;;;;;;8.88;59.72;101169.16;5013526;28;20042;-76
2022/12/11 04:30:24;;;;;;;85.72;27.23;;;;;;;8.88;60.04;101165.63;5014794;28;20533;-76
2022/12/11 04:32:51;;;;;;;85.22;27.92;;;;;;;8.82;60.36;101164.59;5031399;28;20564;-78
2022/12/11 04:35:17;;;;;;;83.43;27.13;;;;;;;8.42;61.35;101165.56;5013709;28;20513;-74
2022/12/11 04:37:42;;;;;;;83.45;26.08;;;;;;;8.51;61.28;101165.16;5031516;28;20044;-75
2022/12/11 04:40:12;;;;;;;90.65;30.33;;;;;;;8.92;60.24;101156.97;5032193;28;20029;-75
2022/12/11 04:42:37;;;;;;;79.90;26.58;;;;;;;8.64;59.91;101148.31;5035095;28;20033;-75
2022/12/11 04:45:04;;;;;;;83.68;25.90;;;;;;;8.84;60.06;101149.16;5032774;28;20508;-75
2022/12/11 04:47:30;;;;;;;84.40;26.60;;;;;;;8.78;60.42;101141.94;5051066;28;20540;-75
2022/12/11 04:49:55;;;;;;;79.07;27.67;;;;;;;8.85;60.14;101145.41;5050907;28;20029;-76
2022/12/11 04:52:39;;;;;;;80.25;28.30;;;;;;;9.18;59.00;101134.69;5050794;28;20037;-76
2022/12/11 04:55:06;;;;;;;80.60;25.20;;;;;;;8.82;60.11;101133.25;5051181;28;20029;-73
2022/12/11 04:57:32;;;;;;;92.57;27.00;;;;;;;8.85;60.38;101137.38;5051008;28;20117;-76
2022/12/11 04:59:57;;;;;;;82.32;26.95;;;;;;;9.05;59.45;101140.88;5051323;28;20158;-75
2022/12/11 05:02:22;;;;;;;90.95;28.42;;;;;;;8.96;60.22;101128.75;5049014;28;20116;-76
2022/12/11 05:04:48;;;;;;;78.40;26.52;;;;;;;9.16;59.48;101137.56;5050955;28;20452;-75
2022/12/11 05:07:13;;;;;;;75.88;24.90;;;;;;;9.07;59.49;101130.78;5051211;28;20036;-75
2022/12/11 05:09:38;;;;;;;73.22;24.52;;;;;;;9.09;59.90;101138.59;5051287;28;20035;-76
2022/12/11 05:12:04;;;;;;;75.38;25.77;;;;;;;9.16;59.62;101139.44;5050970;28;20025;-76
2022/12/11 05:14:31;;;;;;;84.18;26.98;;;;;;;9.20;59.80;101138.00;5033109;28;20041;-75
2022/12/11 05:16:58;;;;;;;72.97;25.88;;;;;;;8.83;60.08;101137.59;5055270;28;20341;-76
2022/12/11 05:19:23;;;;;;;67.15;23.80;;;;;;;9.06;60.01;101129.13;5055849;28;20555;-75
2022/12/11 05:21:49;;;;;;;75.65;26.27;;;;;;;8.99;59.57;101136.34;5056022;28;20045;-75
2022/12/11 05:24:14;;;;;;;81.50;28.05;;;;;;;9.17;59.65;101133.03;5070306;28;20132;-75
2022/12/11 05:26:39;;;;;;;75.68;25.83;;;;;;;9.10;59.78;101132.22;5076322;28;20040;-75
2022/12/11 05:29:05;;;;;;;69.80;23.90;;;;;;;9.31;59.19;101134.66;5075787;28;20032;-76
2022/12/11 05:31:30;;;;;;;73.18;24.77;;;;;;;9.36;59.21;101130.31;5075997;28;20056;-75
2022/12/11 05:33:56;;;;;;;89.05;27.60;;;;;;;9.10;59.67;101129.53;5075704;28;20031;-75
2022/12/11 05:36:22;;;;;;;71.15;24.70;;;;;;;9.16;59.69;101128.72;5075600;28;20085;-76
2022/12/11 05:38:48;;;;;;;72.22;25.83;;;;;;;9.11;59.29;101126.66;5075341;28;20044;-76
2022/12/11 05:41:16;;;;;;;81.90;25.42;;;;;;;8.71;60.35;101125.00;5075788;28;20086;-75
2022/12/11 05:43:42;;;;;;;78.72;25.75;;;;;;;9.07;59.86;101130.78;5075450;28;20032;-75
2022/12/11 05:46:09;;;;;;;76.53;25.38;;;;;;;9.02;59.45;101133.25;5075667;28;20477;-75
2022/12/11 05:48:35;;;;;;;78.95;24.85;;;;;;;9.17;59.28;101135.72;5075376;28;20119;-76
2022/12/11 05:51:02;;;;;;;77.03;28.17;;;;;;;8.84;59.58;101136.56;5075245;28;20045;-75
2022/12/11 05:53:28;;;;;;;74.15;25.50;;;;;;;8.84;60.43;101131.19;5075402;28;20412;-75
2022/12/11 05:55:53;;;;;;;82.00;27.05;;;;;;;8.89;60.00;101138.63;5070571;28;20115;-74
2022/12/11 05:58:19;;;;;;;70.63;23.90;;;;;;;8.64;60.39;101132.22;5075083;28;20473;-75
2022/12/11 06:00:45;;;;;;;73.00;25.63;;;;;;;9.10;59.40;101135.72;5074117;28;20579;-75
2022/12/11 06:03:10;;;;;;;75.20;25.25;;;;;;;9.23;59.26;101140.25;5075253;28;20036;-75
2022/12/11 06:05:41;;;;;;;77.57;26.38;;;;;;;9.24;58.84;101134.66;5072654;28;20067;-75
2022/12/11 06:08:07;;;;;;;71.35;26.60;;;;;;;9.07;59.34;101133.47;5074214;28;20039;-75
2022/12/11 06:10:32;;;;;;;79.00;25.48;;;;;;;9.03;60.08;101129.53;5073765;28;20396;-74
2022/12/11 06:12:58;;;;;;;75.78;25.02;;;;;;;8.99;59.65;101128.31;5074514;28;20495;-75
2022/12/11 06:15:23;;;;;;;70.28;25.48;;;;;;;8.71;60.68;101125.84;5074326;28;20044;-74
2022/12/11 06:17:49;;;;;;;72.25;24.77;;;;;;;8.94;59.72;101133.47;5074435;28;20534;-75
2022/12/11 06:20:14;;;;;;;64.45;23.75;;;;;;;9.02;59.74;101133.25;5072407;28;20095;-75
2022/12/11 06:22:40;;;;;;;76.05;24.65;;;;;;;8.85;60.29;101124.81;5058763;28;20600;-75
2022/12/11 06:25:06;;;;;;;71.10;24.38;;;;;;;8.64;61.20;101132.22;5055266;28;20550;-76
2022/12/11 06:27:31;;;;;;;66.57;25.58;;;;;;;9.03;59.76;101129.53;5054851;28;20064;-75
2022/12/11 06:29:56;;;;;;;63.35;23.88;;;;;;;9.20;59.28;101124.59;5054610;28;20043;-75
2022/12/11 06:32:22;;;;;;;60.67;22.17;;;;;;;9.05;59.38;101123.97;5053153;28;20086;-76
2022/12/11 06:34:47;;;;;;;68.15;24.75;;;;;;;8.90;59.59;101121.53;5054725;28;20090;-75
2022/12/11 06:37:12;;;;;;;74.50;27.10;;;;;;;8.81;60.73;101120.91;5055210;28;20116;-74
2022/12/11 06:39:38;;;;;;;84.20;26.25;;;;;;;8.93;60.44;101126.44;5064079;28;20688;-77
2022/12/11 06:42:03;;;;;;;70.90;25.08;;;;;;;9.14;59.83;101126.22;5074512;28;20032;-76
2022/12/11 06:44:28;;;;;;;81.97;25.40;;;;;;;9.18;59.21;101132.81;5074576;28;20032;-76
2022/12/11 06:46:54;;;;;;;83.38;26.50;;;;;;;8.74;60.44;101132.66;5074252;28;20036;-76
2022/12/11 06:49:19;;;;;;;73.40;24.67;;;;;;;9.14;59.47;101136.94;5074598;28;20081;-75
2022/12/11 06:51:44;;;;;;;73.40;25.17;;;;;;;9.17;59.40;101133.84;5072483;28;20040;-75
2022/12/11 06:54:10;;;;;;;74.32;25.17;;;;;;;9.15;59.38;101124.38;5069945;28;20029;-75
2022/12/11 06:56:35;;;;;;;69.35;23.45;;;;;;;9.28;59.02;101122.47;5053767;28;20041;-76
2022/12/11 06:59:01;;;;;;;82.95;26.70;;;;;;;9.39;58.99;101119.19;5053996;28;20040;-75
2022/12/11 07:01:27;;;;;;;69.13;24.20;;;;;;;9.24;59.42;101121.25;5061591;28;20876;-77
2022/12/11 07:03:57;;;;;;;74.82;24.92;;;;;;;9.38;58.83;101127.41;5069673;28;20031;-74
2022/12/11 07:06:24;;;;;;;72.30;25.92;;;;;;;9.12;59.15;101128.28;5073518;28;20086;-75
2022/12/11 07:08:50;;;;;;;69.13;23.25;;;;;;;9.30;59.06;101131.16;5073590;28;20060;-75
2022/12/11 07:11:17;;;;;;;71.75;25.60;;;;;;;9.08;59.44;101126.25;5065201;28;20036;-75
2022/12/11 07:13:42;;;;;;;76.85;25.90;;;;;;;9.15;59.45;101125.19;5073621;28;20098;-76
2022/12/11 07:16:10;;;;;;;74.32;25.17;;;;;;;8.67;60.64;101135.31;5074234;28;20040;-75
2022/12/11 07:18:37;;;;;;;72.57;26.33;;;;;;;8.90;60.42;101142.97;5073513;28;20033;-75
2022/12/11 07:21:04;;;;;;;74.78;25.30;;;;;;;8.68;60.14;101136.16;5071749;28;20119;-75
2022/12/11 07:23:29;;;;;;;73.68;26.80;;;;;;;8.84;60.14;101152.63;5073326;28;20051;-75
2022/12/11 07:25:55;;;;;;;72.70;24.90;;;;;;;8.98;60.08;101155.31;5071981;28;20044;-75
2022/12/11 07:28:20;;;;;;;76.07;26.27;;;;;;;8.93;60.38;101155.94;5073359;28;20260;-73
2022/12/11 07:30:47;;;;;;;71.15;24.90;;;;;;;8.76;60.67;101147.50;5073259;28;20089;-75
2022/12/11 07:33:12;;;;;;;73.90;25.83;;;;;;;8.98;59.88;101150.78;5073349;28;20035;-74
2022/12/11 07:35:38;;;;;;;83.80;25.40;;;;;;;8.68;60.89;101155.75;5072677;28;20032;-76
2022/12/11 07:38:03;;;;;;;70.82;26.88;;;;;;;9.00;59.86;101156.78;5069888;28;20035;-74
2022/12/11 07:40:28;;;;;;;73.38;26.38;;;;;;;8.92;60.48;101158.84;5055525;28;20064;-74
2022/12/11 07:42:54;;;;;;;78.10;26.42;;;;;;;8.95;60.17;101164.59;5053675;28;20101;-75
2022/12/11 07:45:19;;;;;;;73.75;25.77;;;;;;;9.05;60.33;101161.50;5052928;28;20036;-74
2022/12/11 07:47:45;;;;;;;70.65;26.65;;;;;;;9.00;60.06;101166.66;5053180;28;20103;-75
2022/12/11 07:50:10;;;;;;;80.68;28.80;;;;;;;9.12;59.95;101167.69;5053858;28;20123;-74
2022/12/11 07:52:35;;;;;;;79.63;28.02;;;;;;;8.89;59.72;101170.78;5072663;28;20037;-75
2022/12/11 07:55:02;;;;;;;73.38;27.00;;;;;;;8.97;60.46;101162.53;5073082;28;20029;-74
2022/12/11 07:57:28;;;;;;;75.60;27.77;;;;;;;9.03;60.24;101161.72;5072988;28;20067;-76
2022/12/11 07:59:54;;;;;;;72.72;25.42;;;;;;;8.79;60.75;101167.69;5072656;28;20119;-74
2022/12/11 08:02:20;;;;;;;77.13;26.45;;;;;;;9.05;59.90;101164.16;5073182;28;20050;-75
2022/12/11 08:04:46;;;;;;;73.82;25.65;;;;;;;9.01;59.94;101169.13;5072969;28;20071;-73
2022/12/11 08:07:11;;;;;;;68.10;24.52;;;;;;;9.05;60.19;101158.81;5073327;28;20115;-74
2022/12/11 08:09:37;;;;;;;79.90;24.30;;;;;;;8.71;60.70;101159.84;5072620;28;20037;-74
2022/12/11 08:12:02;;;;;;;66.60;26.13;;;;;;;9.19;59.27;101155.09;5072806;28;20033;-76
2022/12/11 08:14:28;;;;;;;65.22;26.02;;;;;;;9.08;59.97;101156.53;5072399;28;20098;-75
2022/12/11 08:16:53;;;;;;;72.97;26.42;;;;;;;9.14;59.94;101160.28;5072230;28;20034;-75
2022/12/11 08:19:18;;;;;;;72.25;27.10;;;;;;;9.05;60.14;101154.28;5071454;28;20031;-75
2022/12/11 08:21:44;;;;;;;64.05;25.80;;;;;;;9.04;60.03;101154.50;5066743;28;20036;-75
2022/12/11 08:24:09;;;;;;;71.10;27.88;;;;;;;8.90;60.41;101155.53;5072160;28;20060;-74
2022/12/11 08:26:35;;;;;;;80.80;28.23;;;;;;;9.01;60.35;101153.06;5072317;28;20038;-75
2022/12/11 08:29:01;;;;;;;69.93;26.27;;;;;;;9.21;59.77;101153.03;5072679;28;20025;-76
2022/12/11 08:31:28;;;;;;;75.80;27.02;;;;;;;9.19;59.97;101150.56;5072181;28;20036;-75
2022/12/11 08:33:55;;;;;;;69.05;25.77;;;;;;;9.24;59.72;101148.06;5060554;28;20071;-74
2022/12/11 08:36:22;;;;;;;68.93;24.27;;;;;;;9.23;59.65;101150.97;5070270;28;20043;-74
2022/12/11 08:38:48;;;;;;;77.20;26.17;;;;;;;8.66;61.07;101151.59;5071465;28;20025;-74
2022/12/11 08:41:18;;;;;;;73.43;25.20;;;;;;;9.16;60.11;101150.97;5072047;28;20120;-72
2022/12/11 08:43:44;;;;;;;69.63;25.05;;;;;;;9.51;58.36;101146.97;5047680;28;20123;-72
2022/12/11 08:46:11;;;;;;;75.32;28.95;;;;;;;9.40;59.03;101168.25;5071385;28;20676;-72
2022/12/11 08:48:38;;;;;;;73.00;27.25;;;;;;;8.92;59.98;101164.19;5071027;28;20423;-72
2022/12/11 08:51:06;;;;;;;75.65;26.02;;;;;;;8.32;62.25;101151.75;5073224;28;20040;-72
2022/12/11 08:53:32;;;;;;;65.57;25.08;;;;;;;8.65;61.71;101158.81;5074655;28;20044;-72
2022/12/11 08:56:02;;;;;;;75.28;26.23;;;;;;;8.80;60.82;101159.44;5074876;28;20454;-71
2022/12/11 08:58:27;;;;;;;67.93;26.15;;;;;;;8.94;60.37;101162.97;5073253;28;20052;-74
2022/12/11 09:00:53;;;;;;;70.05;27.20;;;;;;;8.69;60.98;101152.00;5072353;28;20033;-72
2022/12/11 09:03:18;;;;;;;65.55;26.30;;;;;;;8.87;61.16;101151.41;5070597;28;20040;-73
2022/12/11 09:05:44;;;;;;;69.28;26.13;;;;;;;8.85;61.32;101154.28;5074540;28;20488;-73
2022/12/11 09:08:09;;;;;;;80.40;29.80;;;;;;;9.05;60.42;101146.25;5073803;28;20036;-72
2022/12/11 09:10:34;;;;;;;71.13;24.83;;;;;;;9.12;60.52;101155.09;5074130;28;20034;-74
2022/12/11 09:13:02;;;;;;;77.75;27.80;;;;;;;9.04;60.27;101155.31;5075503;28;20096;-74
2022/12/11 09:15:27;;;;;;;74.35;25.60;;;;;;;9.23;59.50;101148.28;5071712;28;20120;-73
2022/12/11 09:17:53;;;;;;;72.32;26.17;;;;;;;9.36;59.52;101145.56;5051381;28;20033;-72
2022/12/11 09:20:18;;;;;;;71.07;24.60;;;;;;;9.26;59.93;101143.31;5074743;28;20111;-72
2022/12/11 09:22:43;;;;;;;75.85;26.63;;;;;;;9.28;59.71;101135.88;5073619;28;20029;-73
2022/12/11 09:25:09;;;;;;;67.43;25.85;;;;;;;9.12;60.43;101135.53;5074889;28;20023;-72
2022/12/11 09:27:34;;;;;;;60.50;24.83;;;;;;;9.34;59.55;101136.91;5074563;28;20182;-72
2022/12/11 09:30:02;;;;;;;71.93;26.13;;;;;;;9.40;59.95;101144.94;5071678;28;20530;-69
2022/12/11 09:32:27;;;;;;;75.13;27.55;;;;;;;9.44;59.75;101153.38;5060994;28;20132;-73
2022/12/11 09:34:52;;;;;;;67.68;28.65;;;;;;;8.88;59.99;101147.69;5054590;28;20097;-72
2022/12/11 09:37:18;;;;;;;73.95;29.35;;;;;;;9.39;59.68;101148.69;5046921;28;20187;-71
2022/12/11 09:39:43;;;;;;;70.63;27.10;;;;;;;9.32;59.36;101137.13;5065876;28;20037;-75
2022/12/11 09:42:28;;;;;;;64.65;26.08;;;;;;;9.33;59.34;101141.47;5073183;28;20024;-73
2022/12/11 09:44:59;;;;;;;70.72;27.65;;;;;;;8.94;60.21;101146.03;5054356;28;20106;-72
2022/12/11 09:47:35;;;;;;;;;;;;;;;9.25;59.64;101133.66;5055075;28;20569;-71
2022/12/11 09:50:11;;;;;;;70.15;25.98;;;;;;;9.35;58.73;101134.03;5054448;28;19992;-70
2022/12/11 09:53:07;;;;;;;67.90;30.80;;;;;;;8.60;61.01;101142.53;5052926;28;20033;-71
2022/12/11 09:56:01;;;;;;;72.30;28.25;;;;;;;8.01;62.88;101141.56;5057299;28;20025;-71
2022/12/11 09:58:38;;;;;;;63.95;27.98;;;;;;;8.04;62.10;101141.13;5074259;28;20021;-71
2022/12/11 10:01:12;;;;;;;62.60;27.67;;;;;;;7.59;63.00;101147.97;5055914;28;20040;-71
2022/12/11 10:04:00;;;;;;;69.28;29.27;;;;;;;8.25;61.13;101140.22;5074007;28;20032;-70
2022/12/11 10:06:40;;;;;;;69.00;29.83;;;;;;;7.10;64.92;101142.75;5073722;28;20496;-70
2022/12/11 10:09:06;;;;;;;61.28;28.13;;;;;;;7.21;63.81;101153.91;5073604;28;20025;-71
2022/12/11 10:11:57;;;;;;;59.75;29.10;;;;;;;8.18;61.77;101140.16;5073774;28;20105;-72
2022/12/11 10:14:40;;;;;;;62.28;28.27;;;;;;;8.19;61.09;101141.81;5073824;28;20047;-71
2022/12/11 10:17:20;;;;;;;62.17;28.00;;;;;;;8.35;60.61;101141.47;5073745;28;20056;-71
2022/12/11 10:19:47;;;;;;;60.05;27.17;;;;;;;8.31;59.68;101150.94;5073646;28;20424;-72
2022/12/11 10:22:21;;;;;;;53.25;26.10;;;;;;;7.91;60.36;101151.81;5062497;28;20467;-71
2022/12/11 10:24:59;;;;;;;54.33;25.98;;;;;;;7.52;60.64;101160.47;5053794;28;20060;-70
2022/12/11 10:27:30;;;;;;;59.15;29.60;;;;;;;6.94;63.01;101164.41;5053732;28;20370;-71
2022/12/11 10:30:33;;;;;;;60.80;27.45;;;;;;;7.19;62.28;101156.78;5053644;28;20033;-70
2022/12/11 10:33:01;;;;;;;55.30;28.80;;;;;;;7.05;62.34;101155.88;5053519;28;20052;-70
2022/12/11 10:35:39;;;;;;;56.25;28.50;;;;;;;7.44;61.68;101160.63;5058396;28;20154;-72
2022/12/11 10:38:27;;;;;;;64.72;30.00;;;;;;;7.41;61.93;101160.22;5073545;28;20043;-71
2022/12/11 10:41:16;;;;;;;59.13;28.08;;;;;;;6.99;63.18;101155.81;5072802;28;20032;-70
2022/12/11 10:43:45;;;;;;;58.90;28.27;;;;;;;7.22;62.92;101147.53;5073226;28;20029;-70
2022/12/11 10:46:17;;;;;;;63.70;30.50;;;;;;;6.98;63.71;101157.66;5073880;28;20040;-71
2022/12/11 10:48:53;;;;;;;62.60;30.88;;;;;;;7.28;63.34;101142.25;5073186;28;20403;-70
2022/12/11 10:51:21;;;;;;;57.70;28.20;;;;;;;7.64;61.38;101142.03;5073020;28;20032;-72
2022/12/11 10:53:56;;;;;;;68.50;30.73;;;;;;;8.06;60.64;101125.72;5072957;28;20037;-71
2022/12/11 10:56:27;;;;;;;59.03;30.33;;;;;;;8.13;60.26;101133.75;5054301;28;20079;-72
2022/12/11 10:58:55;;;;;;;54.60;26.80;;;;;;;8.01;60.03;101133.53;5072967;28;20129;-71
2022/12/11 11:01:23;;;;;;;47.00;26.10;;;;;;;8.38;58.58;101130.34;5072870;28;20037;-71
2022/12/11 11:04:17;;;;;;;54.63;25.77;;;;;;;7.99;59.89;101136.41;5073202;28;20020;-69
2022/12/11 11:06:43;;;;;;;58.85;28.40;;;;;;;8.49;58.51;101134.28;5072854;28;20036;-71
2022/12/11 11:09:35;;;;;;;55.40;27.45;;;;;;;8.22;59.22;101132.53;5072525;28;20056;-69
2022/12/11 11:12:02;;;;;;;47.92;24.80;;;;;;;8.07;59.81;101135.41;5063464;28;20116;-71
2022/12/11 11:14:28;;;;;;;47.05;26.20;;;;;;;7.89;61.01;101130.63;5071061;28;20093;-70
2022/12/11 11:16:59;;;;;;;48.20;25.40;;;;;;;6.97;63.17;101142.66;5071904;28;20036;-72
2022/12/11 11:19:34;;;;;;;40.55;20.63;;;;;;;7.05;62.87;101149.69;5072108;28;20044;-71
2022/12/11 11:22:04;;;;;;;40.42;21.60;;;;;;;6.70;63.21;101142.63;5063110;28;20048;-70
2022/12/11 11:24:42;;;;;;;38.80;19.05;;;;;;;7.28;60.68;101141.41;5052765;28;20056;-71
2022/12/11 11:27:34;;;;;;;38.85;20.42;;;;;;;6.85;62.22;101133.53;5051637;28;20037;-72
2022/12/11 11:30:04;;;;;;;33.35;18.02;;;;;;;6.98;61.85;101132.78;5055495;28;20111;-71
2022/12/11 11:32:37;;;;;;;36.28;19.48;;;;;;;8.10;59.69;101120.81;5071995;28;20064;-71
2022/12/11 11:35:12;;;;;;;35.42;18.58;;;;;;;8.12;58.21;101119.53;5071690;28;20073;-71
2022/12/11 11:37:40;;;;;;;36.58;17.80;;;;;;;8.71;57.13;101111.63;5072112;28;20029;-70